ADDS METAR Data INFO
IDs: Format: Raw Decoded Include TAF

Data at: 1531 UTC 18 Jun 2018

KBTA 181515Z AUTO 18010KT 10SM CLR 28/23 A2993 RMK AO2 T02820226
KBTA 181455Z AUTO 17008KT 10SM CLR 28/23 A2994 RMK AO2 T02800226
KBTA 181435Z AUTO 19011KT 10SM CLR 28/22 A2994 RMK AO2 T02750223
KBTA 181415Z AUTO 18009KT 10SM CLR 27/22 A2995 RMK AO2 T02680222
KBTA 181355Z AUTO 19008KT 10SM SCT035 SCT043 SCT050 26/22 A2995 RMK AO2 T02600221
KBTA 181335Z AUTO 19009KT 10SM -RA SCT034 SCT040 BKN080 26/22 A2995 RMK AO2 T02640218
KBTA 181315Z AUTO 19008KT 10SM BKN080 27/22 A2995 RMK AO2 T02650217
KBTA 181255Z AUTO 17006KT 10SM SCT080 BKN090 26/22 A2995 RMK AO2 T02620216
KBTA 181235Z AUTO 16004KT 10SM CLR 25/21 A2995 RMK AO2 T02540212
KBTA 181215Z AUTO 17003KT 10SM CLR 25/21 A2995 RMK AO2 T02450213
KBTA 181155Z AUTO 00000KT 10SM CLR 25/21 A2994 RMK AO2 T02490210 10270 20233
KBTA 181135Z AUTO 18004KT 10SM CLR 24/21 A2994 RMK AO2 T02410210
KBTA 181115Z AUTO 19005KT 10SM CLR 24/21 A2993 RMK AO2 T02370208
KBTA 181055Z AUTO 19006KT 10SM CLR 24/21 A2993 RMK AO2 T02350208
KBTA 181035Z AUTO 19005KT 10SM CLR 25/21 A2993 RMK AO2 T02450208
KBTA 181015Z AUTO 19007KT 10SM SCT100 24/21 A2993 RMK AO2 T02410212
KBTA 180955Z AUTO 19004KT 10SM BKN100 25/21 A2992 RMK AO2 T02500210
KBTA 180935Z AUTO 18005KT 10SM OVC090 25/21 A2992 RMK AO2 T02510212
KBTA 180915Z AUTO 19006KT 10SM OVC090 26/21 A2991 RMK AO2 T02550211
KBTA 180855Z AUTO 20005KT 10SM BKN090 26/21 A2991 RMK AO2 T02550210
KBTA 180835Z AUTO 20006KT 10SM SCT090 26/21 A2991 RMK AO2 T02580210
KBTA 180815Z AUTO 21006KT 10SM SCT070 SCT100 SCT120 26/21 A2991 RMK AO2 T02620210
KBTA 180755Z AUTO 25006KT 10SM SCT070 BKN110 27/21 A2991 RMK AO2 T02650209
KBTA 180735Z AUTO 20008KT 10SM BKN100 27/21 A2991 RMK AO2 T02660207
KBTA 180715Z AUTO 19010KT 10SM SCT100 27/21 A2990 RMK AO2 T02650206
KBTA 180655Z AUTO 19010G16KT 10SM CLR 27/21 A2989 RMK AO2 T02660205
KBTA 180635Z AUTO 18011KT 10SM CLR 27/20 A2989 RMK AO2 T02670203
KBTA 180615Z AUTO 17011KT 10SM SCT110 27/20 A2989 RMK AO2 T02670203
KBTA 180555Z AUTO 17011KT 10SM CLR 27/20 A2989 RMK AO2 T02700202 10297 20270 403250228
KBTA 180535Z AUTO 17011KT 10SM SCT120 27/20 A2989 RMK AO2 T02710202
KBTA 180515Z AUTO 17011KT 10SM SCT120 28/20 A2989 RMK AO2 T02750200
KBTA 180455Z AUTO 18012G17KT 10SM CLR 28/20 A2988 RMK AO2 T02760201
KBTA 180435Z AUTO 17011KT 10SM SCT120 28/20 A2988 RMK AO2 LTG DSNT N T02780203
KBTA 180415Z AUTO 17012G18KT 10SM SCT120 28/20 A2988 RMK AO2 T02830202
KBTA 180355Z AUTO 17012G17KT 10SM CLR 29/21 A2988 RMK AO2 T02850205
KBTA 180335Z AUTO 17013KT 10SM CLR 29/21 A2987 RMK AO2 T02860208
KBTA 180315Z AUTO 17013G18KT 10SM CLR 29/21 A2986 RMK AO2 T02890211
KBTA 180255Z AUTO 16012G20KT 10SM SCT075 29/22 A2984 RMK AO2 T02900215
KBTA 180235Z AUTO 17011G18KT 10SM BKN075 30/22 A2983 RMK AO2 T02950216
KBTA 180215Z AUTO 17012KT 10SM CLR 29/22 A2983 RMK AO2 T02930218
KBTA 180155Z AUTO 17013KT 10SM CLR 30/22 A2982 RMK AO2 T02950220
KBTA 180135Z AUTO 17012G17KT 10SM CLR 30/22 A2982 RMK AO2 T02950222
KBTA 180115Z AUTO 17011G17KT 10SM CLR 30/22 A2982 RMK AO2 T02960223
KBTA 180055Z AUTO 16008KT 10SM CLR 30/23 A2982 RMK AO2 T02950229
KBTA 180035Z AUTO 16008KT 10SM CLR 30/24 A2982 RMK AO2 T02970236
KBTA 180015Z AUTO 16009KT 10SM CLR 30/24 A2983 RMK AO2 T02950235
KBTA 172355Z AUTO 15010G15KT 10SM SCT070 SCT080 29/23 A2983 RMK AO2 T02930234 10325 20228
KBTA 172335Z AUTO 15009KT 10SM SCT070 BKN080 28/23 A2984 RMK AO2 T02830234
KBTA 172315Z AUTO 14009KT 10SM SCT070 SCT080 28/24 A2984 RMK AO2 T02810235
KBTA 172255Z AUTO 14011G14KT 10SM SCT075 29/24 A2985 RMK AO2 T02900238
KBTA 172235Z AUTO 14008KT 10SM CLR 29/24 A2987 RMK AO2 LTG DSNT E AND SE T02860243
KBTA 172215Z AUTO 09010KT 10SM SCT120 27/24 A2987 RMK AO2 LTG DSNT NE AND E T02680240
KBTA 172155Z AUTO 12007KT 10SM CLR 26/24 A2986 RMK AO2 LTG DSNT NE AND E T02550242
KBTA 172135Z AUTO 14005KT 10SM VCTS CLR 25/24 A2986 RMK AO2 LTG DSNT NE THRU S T02450235
KBTA 172115Z AUTO 15007KT 10SM -TSRA CLR 24/23 A2988 RMK AO2 LTG DSNT ALQS T02370228
KBTA 172055Z AUTO 08008KT TS 23/22 A2988 RMK AO2 LTG DSNT ALQS T02290221
KBTA 172035Z AUTO 15010KT 10SM TS CLR 32/22 A2986 RMK AO2 LTG DSNT SE THRU SW T03220224
KBTA 172015Z AUTO 16011KT 10SM SCT050 SCT100 32/22 A2988 RMK AO2 LTG DSNT S AND SW T03190221
KBTA 171955Z AUTO 17008KT 10SM SCT045 SCT050 BKN090 32/22 A2988 RMK AO2 LTG DSNT S T03150223
KBTA 171935Z AUTO 20006KT 10SM SCT043 SCT090 32/22 A2989 RMK AO2 T03150222
KBTA 171915Z AUTO 19008KT 10SM SCT120 31/22 A2989 RMK AO2 T03110221
KBTA 171855Z AUTO 21009G14KT 10SM SCT120 30/22 A2989 RMK AO2 T03030220
KBTA 171835Z AUTO 21009KT 10SM CLR 30/21 A2990 RMK AO2 T02970209
KBTA 171815Z AUTO 22010G14KT 10SM CLR 29/21 A2991 RMK AO2 T02940211
KBTA 171755Z AUTO 20015G21KT 10SM CLR 29/21 A2991 RMK AO2 T02920206 10298 20257
KBTA 171735Z AUTO 19014G17KT 10SM SCT110 29/21 A2991 RMK AO2 T02910210
KBTA 171715Z AUTO 18010KT 10SM SCT080 SCT110 29/22 A2990 RMK AO2 T02920216
KBTA 171655Z AUTO 19013KT 10SM SCT080 SCT120 29/21 A2991 RMK AO2 T02900213
KBTA 171635Z AUTO 19014KT 10SM CLR 29/21 A2990 RMK AO2 T02920210
KBTA 171615Z AUTO 17012KT 10SM CLR 30/22 A2990 RMK AO2 T02960216
KBTA 171555Z AUTO 18015G18KT 10SM CLR 30/22 A2989 RMK AO2 T02950217
KBTA 171535Z AUTO 18012KT 10SM CLR 29/22 A2989 RMK AO2 T02850215
KBTA 171515Z AUTO 19013G18KT 10SM CLR 28/21 A2989 RMK AO2 T02820213
KBTA 171455Z AUTO 18012G15KT 10SM CLR 29/21 A2990 RMK AO2 T02850214
KBTA 171435Z AUTO 19014G18KT 10SM CLR 28/21 A2989 RMK AO2 T02810211
KBTA 171415Z AUTO 18014KT 10SM CLR 28/21 A2989 RMK AO2 T02800212
KBTA 171355Z AUTO 19013KT 10SM CLR 27/21 A2988 RMK AO2 T02690207
KBTA 171335Z AUTO 19015G18KT 10SM CLR 27/21 A2988 RMK AO2 T02700207
KBTA 171315Z AUTO 19015KT 10SM CLR 27/21 A2988 RMK AO2 T02660206
KBTA 171255Z AUTO 18013G18KT 10SM CLR 26/21 A2987 RMK AO2 T02620205
KBTA 171235Z AUTO 17012G16KT 10SM CLR 26/20 A2987 RMK AO2 T02570203
KBTA 171215Z AUTO 17011KT 10SM CLR 26/20 A2987 RMK AO2 T02600202
KBTA 171155Z AUTO 17011KT 10SM CLR 26/20 A2986 RMK AO2 T02580202 10278 20255
KBTA 171135Z AUTO 17011KT 10SM CLR 26/20 A2985 RMK AO2 T02570201
KBTA 171115Z AUTO 17011KT 10SM CLR 26/20 A2985 RMK AO2 T02550200
KBTA 171055Z AUTO 17013G19KT 10SM CLR 26/20 A2985 RMK AO2 T02560200
KBTA 171035Z AUTO 17012G18KT 10SM CLR 26/20 A2984 RMK AO2 T02560201
KBTA 171015Z AUTO 18013G18KT 10SM CLR 26/20 A2984 RMK AO2 T02580201
KBTA 170955Z AUTO 17012G17KT 10SM CLR 26/20 A2984 RMK AO2 T02570202
KBTA 170935Z AUTO 17012G15KT 10SM SCT095 26/20 A2983 RMK AO2 T02600202
KBTA 170915Z AUTO 17010G16KT 10SM OVC095 27/20 A2983 RMK AO2 T02650203
KBTA 170855Z AUTO 17011KT 10SM BKN095 27/20 A2983 RMK AO2 T02650203
KBTA 170835Z AUTO 17011KT 10SM BKN085 27/20 A2982 RMK AO2 T02650203
KBTA 170815Z AUTO 17010KT 10SM CLR 27/21 A2981 RMK AO2 T02650205
KBTA 170755Z AUTO 17012G16KT 10SM CLR 27/21 A2981 RMK AO2 T02650205
KBTA 170735Z AUTO 18013KT 10SM CLR 27/20 A2981 RMK AO2 T02670204
KBTA 170715Z AUTO 17013G17KT 10SM CLR 27/20 A2982 RMK AO2 T02680203
KBTA 170655Z AUTO 17011G17KT 10SM CLR 27/20 A2982 RMK AO2 T02720204
KBTA 170635Z AUTO 17013G17KT 10SM CLR 28/20 A2983 RMK AO2 T02750203
KBTA 170615Z AUTO 17012G19KT 10SM CLR 28/20 A2984 RMK AO2 T02770203
KBTA 170555Z AUTO 17011KT 10SM CLR 28/20 A2984 RMK AO2 T02780203 10323 20278 403450253
KBTA 170535Z AUTO 17012G17KT 10SM CLR 28/20 A2983 RMK AO2 T02800202
KBTA 170515Z AUTO 17013KT 10SM CLR 28/20 A2984 RMK AO2 T02820202
KBTA 170455Z AUTO 17013G21KT 10SM CLR 29/20 A2983 RMK AO2 T02850202
KBTA 170435Z AUTO 17012G20KT 10SM CLR 29/20 A2983 RMK AO2 T02860203
KBTA 170415Z AUTO 17014G22KT 10SM CLR 29/20 A2981 RMK AO2 T02900203
KBTA 170355Z AUTO 16016G22KT 10SM CLR 29/20 A2981 RMK AO2 T02910203
KBTA 170335Z AUTO 17014G22KT 10SM CLR 29/20 A2980 RMK AO2 T02930203